sensor_id;sensor_type;location;lat;lon;timestamp;P1;durP1;ratioP1;P2;durP2;ratioP2
12675;SDS011;63820;65.654;21.944;2023-06-10T00:00:21;1.67;;;0.97;;
12675;SDS011;63820;65.654;21.944;2023-06-10T00:03:06;1.33;;;1.20;;
12675;SDS011;63820;65.654;21.944;2023-06-10T00:05:50;1.47;;;1.00;;
12675;SDS011;63820;65.654;21.944;2023-06-10T00:08:34;3.33;;;1.40;;
12675;SDS011;63820;65.654;21.944;2023-06-10T00:11:18;1.87;;;1.33;;
12675;SDS011;63820;65.654;21.944;2023-06-10T00:14:02;2.23;;;1.13;;
12675;SDS011;63820;65.654;21.944;2023-06-10T00:16:46;1.87;;;1.13;;
12675;SDS011;63820;65.654;21.944;2023-06-10T00:19:30;2.00;;;0.97;;
12675;SDS011;63820;65.654;21.944;2023-06-10T00:22:15;1.57;;;1.07;;
12675;SDS011;63820;65.654;21.944;2023-06-10T00:24:59;2.07;;;1.10;;
12675;SDS011;63820;65.654;21.944;2023-06-10T00:27:43;2.00;;;0.93;;
12675;SDS011;63820;65.654;21.944;2023-06-10T00:30:26;1.43;;;0.93;;
12675;SDS011;63820;65.654;21.944;2023-06-10T00:33:11;1.60;;;1.10;;
12675;SDS011;63820;65.654;21.944;2023-06-10T00:35:54;1.10;;;0.93;;
12675;SDS011;63820;65.654;21.944;2023-06-10T00:38:39;3.90;;;1.30;;
12675;SDS011;63820;65.654;21.944;2023-06-10T00:41:25;2.23;;;1.10;;
12675;SDS011;63820;65.654;21.944;2023-06-10T00:44:12;1.20;;;1.03;;
12675;SDS011;63820;65.654;21.944;2023-06-10T00:46:56;1.40;;;1.27;;
12675;SDS011;63820;65.654;21.944;2023-06-10T00:49:40;1.10;;;1.00;;
12675;SDS011;63820;65.654;21.944;2023-06-10T00:52:26;3.77;;;1.27;;
12675;SDS011;63820;65.654;21.944;2023-06-10T00:55:12;1.30;;;1.20;;
12675;SDS011;63820;65.654;21.944;2023-06-10T00:57:56;1.20;;;1.10;;
12675;SDS011;63820;65.654;21.944;2023-06-10T01:00:40;1.93;;;1.07;;
12675;SDS011;63820;65.654;21.944;2023-06-10T01:03:25;2.40;;;1.23;;
12675;SDS011;63820;65.654;21.944;2023-06-10T01:09:45;3.53;;;1.50;;
12675;SDS011;63820;65.654;21.944;2023-06-10T01:12:44;4.60;;;1.27;;
12675;SDS011;63820;65.654;21.944;2023-06-10T01:15:34;1.60;;;1.17;;
12675;SDS011;63820;65.654;21.944;2023-06-10T01:18:19;1.30;;;1.10;;
12675;SDS011;63820;65.654;21.944;2023-06-10T01:21:03;1.80;;;1.23;;
12675;SDS011;63820;65.654;21.944;2023-06-10T01:23:47;3.63;;;1.30;;
12675;SDS011;63820;65.654;21.944;2023-06-10T01:26:32;1.80;;;1.50;;
12675;SDS011;63820;65.654;21.944;2023-06-10T01:29:19;2.67;;;1.30;;
12675;SDS011;63820;65.654;21.944;2023-06-10T01:32:52;2.20;;;1.20;;
12675;SDS011;63820;65.654;21.944;2023-06-10T01:35:21;3.37;;;1.20;;
12675;SDS011;63820;65.654;21.944;2023-06-10T01:38:09;1.67;;;1.20;;
12675;SDS011;63820;65.654;21.944;2023-06-10T01:40:55;2.13;;;1.10;;
12675;SDS011;63820;65.654;21.944;2023-06-10T01:43:40;1.87;;;1.20;;
12675;SDS011;63820;65.654;21.944;2023-06-10T01:46:27;2.43;;;1.40;;
12675;SDS011;63820;65.654;21.944;2023-06-10T01:49:11;2.23;;;1.20;;
12675;SDS011;63820;65.654;21.944;2023-06-10T01:51:55;2.93;;;1.10;;
12675;SDS011;63820;65.654;21.944;2023-06-10T01:54:39;1.87;;;1.00;;
12675;SDS011;63820;65.654;21.944;2023-06-10T01:57:23;2.70;;;1.30;;
12675;SDS011;63820;65.654;21.944;2023-06-10T02:00:07;1.80;;;1.13;;
12675;SDS011;63820;65.654;21.944;2023-06-10T02:02:52;2.83;;;1.57;;
12675;SDS011;63820;65.654;21.944;2023-06-10T02:05:36;2.13;;;1.30;;
12675;SDS011;63820;65.654;21.944;2023-06-10T02:08:20;1.70;;;1.30;;
12675;SDS011;63820;65.654;21.944;2023-06-10T02:11:06;1.33;;;1.00;;
12675;SDS011;63820;65.654;21.944;2023-06-10T02:13:51;1.57;;;1.07;;
12675;SDS011;63820;65.654;21.944;2023-06-10T02:16:35;2.30;;;1.00;;
12675;SDS011;63820;65.654;21.944;2023-06-10T02:19:19;1.17;;;1.07;;
12675;SDS011;63820;65.654;21.944;2023-06-10T02:22:05;1.47;;;1.10;;
12675;SDS011;63820;65.654;21.944;2023-06-10T02:24:49;1.10;;;0.90;;
12675;SDS011;63820;65.654;21.944;2023-06-10T02:27:33;1.20;;;1.10;;
12675;SDS011;63820;65.654;21.944;2023-06-10T02:30:17;1.33;;;1.10;;
12675;SDS011;63820;65.654;21.944;2023-06-10T02:33:02;1.67;;;1.00;;
12675;SDS011;63820;65.654;21.944;2023-06-10T02:35:46;1.20;;;0.90;;
12675;SDS011;63820;65.654;21.944;2023-06-10T02:38:30;2.20;;;1.10;;
12675;SDS011;63820;65.654;21.944;2023-06-10T02:41:14;2.63;;;1.37;;
12675;SDS011;63820;65.654;21.944;2023-06-10T02:43:58;1.53;;;1.10;;
12675;SDS011;63820;65.654;21.944;2023-06-10T02:46:42;1.57;;;1.20;;
12675;SDS011;63820;65.654;21.944;2023-06-10T02:49:26;1.27;;;0.90;;
12675;SDS011;63820;65.654;21.944;2023-06-10T02:52:13;1.50;;;1.00;;
12675;SDS011;63820;65.654;21.944;2023-06-10T02:54:57;1.17;;;0.90;;
12675;SDS011;63820;65.654;21.944;2023-06-10T02:57:41;1.77;;;1.13;;
12675;SDS011;63820;65.654;21.944;2023-06-10T03:00:25;0.83;;;0.83;;
12675;SDS011;63820;65.654;21.944;2023-06-10T03:03:10;1.60;;;0.80;;
12675;SDS011;63820;65.654;21.944;2023-06-10T03:05:55;1.00;;;0.90;;
12675;SDS011;63820;65.654;21.944;2023-06-10T03:08:40;2.03;;;0.90;;
12675;SDS011;63820;65.654;21.944;2023-06-10T03:11:25;1.47;;;0.87;;
12675;SDS011;63820;65.654;21.944;2023-06-10T03:14:09;0.80;;;0.80;;
12675;SDS011;63820;65.654;21.944;2023-06-10T03:16:53;1.20;;;0.83;;
12675;SDS011;63820;65.654;21.944;2023-06-10T03:19:38;1.10;;;0.80;;
12675;SDS011;63820;65.654;21.944;2023-06-10T03:22:23;2.60;;;1.03;;
12675;SDS011;63820;65.654;21.944;2023-06-10T03:25:07;1.00;;;0.70;;
12675;SDS011;63820;65.654;21.944;2023-06-10T03:27:57;1.07;;;0.70;;
12675;SDS011;63820;65.654;21.944;2023-06-10T03:30:41;0.80;;;0.70;;
12675;SDS011;63820;65.654;21.944;2023-06-10T03:33:26;0.73;;;0.73;;
12675;SDS011;63820;65.654;21.944;2023-06-10T03:36:10;1.37;;;0.80;;
12675;SDS011;63820;65.654;21.944;2023-06-10T03:38:54;1.20;;;0.70;;
12675;SDS011;63820;65.654;21.944;2023-06-10T03:41:40;0.60;;;0.50;;
12675;SDS011;63820;65.654;21.944;2023-06-10T03:44:25;0.67;;;0.50;;
12675;SDS011;63820;65.654;21.944;2023-06-10T03:47:12;0.70;;;0.60;;
12675;SDS011;63820;65.654;21.944;2023-06-10T03:49:56;0.67;;;0.60;;
12675;SDS011;63820;65.654;21.944;2023-06-10T03:52:40;0.70;;;0.60;;
12675;SDS011;63820;65.654;21.944;2023-06-10T03:55:25;0.60;;;0.50;;
12675;SDS011;63820;65.654;21.944;2023-06-10T03:58:09;0.60;;;0.50;;
12675;SDS011;63820;65.654;21.944;2023-06-10T04:00:56;0.80;;;0.40;;
12675;SDS011;63820;65.654;21.944;2023-06-10T04:03:40;1.00;;;0.60;;
12675;SDS011;63820;65.654;21.944;2023-06-10T04:06:25;0.50;;;0.50;;
12675;SDS011;63820;65.654;21.944;2023-06-10T04:09:09;0.60;;;0.60;;
12675;SDS011;63820;65.654;21.944;2023-06-10T04:11:54;1.27;;;0.40;;
12675;SDS011;63820;65.654;21.944;2023-06-10T04:14:38;1.37;;;0.60;;
12675;SDS011;63820;65.654;21.944;2023-06-10T04:17:22;0.50;;;0.50;;
12675;SDS011;63820;65.654;21.944;2023-06-10T04:20:07;0.50;;;0.50;;
12675;SDS011;63820;65.654;21.944;2023-06-10T04:22:52;1.87;;;0.40;;
12675;SDS011;63820;65.654;21.944;2023-06-10T04:25:35;0.77;;;0.50;;
12675;SDS011;63820;65.654;21.944;2023-06-10T04:28:20;0.50;;;0.50;;
12675;SDS011;63820;65.654;21.944;2023-06-10T04:31:04;0.93;;;0.50;;
12675;SDS011;63820;65.654;21.944;2023-06-10T04:33:48;0.50;;;0.50;;
12675;SDS011;63820;65.654;21.944;2023-06-10T04:36:32;1.13;;;0.50;;
12675;SDS011;63820;65.654;21.944;2023-06-10T04:39:16;0.70;;;0.50;;
12675;SDS011;63820;65.654;21.944;2023-06-10T04:42:00;0.63;;;0.60;;
12675;SDS011;63820;65.654;21.944;2023-06-10T04:44:45;0.90;;;0.50;;
12675;SDS011;63820;65.654;21.944;2023-06-10T04:47:29;0.50;;;0.50;;
12675;SDS011;63820;65.654;21.944;2023-06-10T04:50:16;0.47;;;0.47;;
12675;SDS011;63820;65.654;21.944;2023-06-10T04:53:00;0.53;;;0.50;;
12675;SDS011;63820;65.654;21.944;2023-06-10T04:55:44;0.47;;;0.40;;
12675;SDS011;63820;65.654;21.944;2023-06-10T04:58:30;0.50;;;0.50;;
12675;SDS011;63820;65.654;21.944;2023-06-10T05:01:14;0.50;;;0.50;;
12675;SDS011;63820;65.654;21.944;2023-06-10T05:03:58;0.40;;;0.40;;
12675;SDS011;63820;65.654;21.944;2023-06-10T05:06:42;0.50;;;0.40;;
12675;SDS011;63820;65.654;21.944;2023-06-10T05:09:26;0.43;;;0.43;;
12675;SDS011;63820;65.654;21.944;2023-06-10T05:12:11;0.60;;;0.60;;
12675;SDS011;63820;65.654;21.944;2023-06-10T05:14:55;0.60;;;0.60;;
12675;SDS011;63820;65.654;21.944;2023-06-10T05:17:39;0.50;;;0.50;;
12675;SDS011;63820;65.654;21.944;2023-06-10T05:20:23;0.60;;;0.57;;
12675;SDS011;63820;65.654;21.944;2023-06-10T05:23:09;0.43;;;0.40;;
12675;SDS011;63820;65.654;21.944;2023-06-10T05:25:53;0.73;;;0.43;;
12675;SDS011;63820;65.654;21.944;2023-06-10T05:28:38;0.70;;;0.60;;
12675;SDS011;63820;65.654;21.944;2023-06-10T05:31:22;0.70;;;0.40;;
12675;SDS011;63820;65.654;21.944;2023-06-10T05:34:06;0.50;;;0.50;;
12675;SDS011;63820;65.654;21.944;2023-06-10T05:36:50;1.10;;;0.50;;
12675;SDS011;63820;65.654;21.944;2023-06-10T05:39:37;0.53;;;0.50;;
12675;SDS011;63820;65.654;21.944;2023-06-10T05:42:22;0.90;;;0.57;;
12675;SDS011;63820;65.654;21.944;2023-06-10T05:45:06;0.85;;;0.50;;
12675;SDS011;63820;65.654;21.944;2023-06-10T05:47:50;0.73;;;0.50;;
12675;SDS011;63820;65.654;21.944;2023-06-10T05:50:35;0.50;;;0.50;;
12675;SDS011;63820;65.654;21.944;2023-06-10T05:53:22;0.50;;;0.50;;
12675;SDS011;63820;65.654;21.944;2023-06-10T05:56:06;0.50;;;0.50;;
12675;SDS011;63820;65.654;21.944;2023-06-10T05:58:51;0.50;;;0.50;;
12675;SDS011;63820;65.654;21.944;2023-06-10T06:01:35;0.57;;;0.50;;
12675;SDS011;63820;65.654;21.944;2023-06-10T06:04:18;0.50;;;0.50;;
12675;SDS011;63820;65.654;21.944;2023-06-10T06:07:03;0.75;;;0.52;;
12675;SDS011;63820;65.654;21.944;2023-06-10T06:09:48;1.75;;;0.50;;
12675;SDS011;63820;65.654;21.944;2023-06-10T06:12:32;0.60;;;0.50;;
12675;SDS011;63820;65.654;21.944;2023-06-10T06:15:16;0.50;;;0.50;;
12675;SDS011;63820;65.654;21.944;2023-06-10T06:18:00;1.15;;;0.60;;
12675;SDS011;63820;65.654;21.944;2023-06-10T06:20:44;0.60;;;0.50;;
12675;SDS011;63820;65.654;21.944;2023-06-10T06:23:29;0.73;;;0.50;;
12675;SDS011;63820;65.654;21.944;2023-06-10T06:26:14;0.60;;;0.60;;
12675;SDS011;63820;65.654;21.944;2023-06-10T06:28:58;0.63;;;0.60;;
12675;SDS011;63820;65.654;21.944;2023-06-10T06:31:42;0.70;;;0.60;;
12675;SDS011;63820;65.654;21.944;2023-06-10T06:34:26;1.58;;;0.88;;
12675;SDS011;63820;65.654;21.944;2023-06-10T06:37:10;0.85;;;0.50;;
12675;SDS011;63820;65.654;21.944;2023-06-10T06:39:54;0.80;;;0.60;;
12675;SDS011;63820;65.654;21.944;2023-06-10T06:42:38;0.93;;;0.65;;
12675;SDS011;63820;65.654;21.944;2023-06-10T06:45:22;0.68;;;0.68;;
12675;SDS011;63820;65.654;21.944;2023-06-10T06:48:06;1.17;;;0.70;;
12675;SDS011;63820;65.654;21.944;2023-06-10T06:50:50;0.70;;;0.63;;
12675;SDS011;63820;65.654;21.944;2023-06-10T06:53:35;0.98;;;0.55;;
12675;SDS011;63820;65.654;21.944;2023-06-10T06:56:20;0.60;;;0.60;;
12675;SDS011;63820;65.654;21.944;2023-06-10T06:59:05;0.63;;;0.60;;
12675;SDS011;63820;65.654;21.944;2023-06-10T07:01:49;1.10;;;0.60;;
12675;SDS011;63820;65.654;21.944;2023-06-10T07:04:33;0.82;;;0.60;;
12675;SDS011;63820;65.654;21.944;2023-06-10T07:07:17;1.58;;;0.50;;
12675;SDS011;63820;65.654;21.944;2023-06-10T07:10:01;0.60;;;0.50;;
12675;SDS011;63820;65.654;21.944;2023-06-10T07:12:45;0.63;;;0.50;;
12675;SDS011;63820;65.654;21.944;2023-06-10T07:15:29;0.40;;;0.40;;
12675;SDS011;63820;65.654;21.944;2023-06-10T07:18:14;0.85;;;0.55;;
12675;SDS011;63820;65.654;21.944;2023-06-10T07:20:59;1.38;;;0.60;;
12675;SDS011;63820;65.654;21.944;2023-06-10T07:23:43;1.27;;;0.60;;
12675;SDS011;63820;65.654;21.944;2023-06-10T07:26:28;0.50;;;0.50;;
12675;SDS011;63820;65.654;21.944;2023-06-10T07:29:13;1.63;;;0.50;;
12675;SDS011;63820;65.654;21.944;2023-06-10T07:31:57;0.68;;;0.68;;
12675;SDS011;63820;65.654;21.944;2023-06-10T07:34:41;0.98;;;0.60;;
12675;SDS011;63820;65.654;21.944;2023-06-10T07:37:25;0.80;;;0.55;;
12675;SDS011;63820;65.654;21.944;2023-06-10T07:40:10;0.70;;;0.60;;
12675;SDS011;63820;65.654;21.944;2023-06-10T07:42:54;0.60;;;0.60;;
12675;SDS011;63820;65.654;21.944;2023-06-10T07:45:39;0.43;;;0.43;;
12675;SDS011;63820;65.654;21.944;2023-06-10T07:48:24;0.55;;;0.45;;
12675;SDS011;63820;65.654;21.944;2023-06-10T07:51:08;1.00;;;0.50;;
12675;SDS011;63820;65.654;21.944;2023-06-10T07:53:52;0.88;;;0.60;;
12675;SDS011;63820;65.654;21.944;2023-06-10T07:56:36;0.60;;;0.50;;
12675;SDS011;63820;65.654;21.944;2023-06-10T07:59:20;1.25;;;0.50;;
12675;SDS011;63820;65.654;21.944;2023-06-10T08:02:05;0.80;;;0.57;;
12675;SDS011;63820;65.654;21.944;2023-06-10T08:04:49;1.70;;;0.70;;
12675;SDS011;63820;65.654;21.944;2023-06-10T08:07:33;0.70;;;0.70;;
12675;SDS011;63820;65.654;21.944;2023-06-10T08:10:18;0.68;;;0.57;;
12675;SDS011;63820;65.654;21.944;2023-06-10T08:13:02;1.30;;;0.50;;
12675;SDS011;63820;65.654;21.944;2023-06-10T08:15:46;0.40;;;0.40;;
12675;SDS011;63820;65.654;21.944;2023-06-10T08:18:31;0.60;;;0.60;;
12675;SDS011;63820;65.654;21.944;2023-06-10T08:21:15;0.60;;;0.60;;
12675;SDS011;63820;65.654;21.944;2023-06-10T08:23:59;1.15;;;0.60;;
12675;SDS011;63820;65.654;21.944;2023-06-10T08:26:43;2.40;;;0.90;;
12675;SDS011;63820;65.654;21.944;2023-06-10T08:29:27;0.80;;;0.60;;
12675;SDS011;63820;65.654;21.944;2023-06-10T08:32:12;1.88;;;0.70;;
12675;SDS011;63820;65.654;21.944;2023-06-10T08:34:56;0.88;;;0.70;;
12675;SDS011;63820;65.654;21.944;2023-06-10T08:37:40;0.50;;;0.50;;
12675;SDS011;63820;65.654;21.944;2023-06-10T08:40:24;0.50;;;0.43;;
12675;SDS011;63820;65.654;21.944;2023-06-10T08:43:22;1.05;;;0.55;;
12675;SDS011;63820;65.654;21.944;2023-06-10T08:46:21;0.50;;;0.50;;
12675;SDS011;63820;65.654;21.944;2023-06-10T08:49:06;0.70;;;0.50;;
12675;SDS011;63820;65.654;21.944;2023-06-10T08:51:52;1.25;;;0.50;;
12675;SDS011;63820;65.654;21.944;2023-06-10T08:54:55;0.98;;;0.40;;
12675;SDS011;63820;65.654;21.944;2023-06-10T08:57:43;0.65;;;0.65;;
12675;SDS011;63820;65.654;21.944;2023-06-10T09:00:28;0.85;;;0.60;;
12675;SDS011;63820;65.654;21.944;2023-06-10T09:03:14;0.50;;;0.50;;
12675;SDS011;63820;65.654;21.944;2023-06-10T09:05:58;1.25;;;0.40;;
12675;SDS011;63820;65.654;21.944;2023-06-10T09:08:43;0.52;;;0.50;;
12675;SDS011;63820;65.654;21.944;2023-06-10T09:11:27;0.60;;;0.60;;
12675;SDS011;63820;65.654;21.944;2023-06-10T09:14:11;1.25;;;0.60;;
12675;SDS011;63820;65.654;21.944;2023-06-10T09:16:56;0.65;;;0.65;;
12675;SDS011;63820;65.654;21.944;2023-06-10T09:19:41;0.80;;;0.55;;
12675;SDS011;63820;65.654;21.944;2023-06-10T09:22:28;1.08;;;0.50;;
12675;SDS011;63820;65.654;21.944;2023-06-10T09:25:12;0.50;;;0.50;;
12675;SDS011;63820;65.654;21.944;2023-06-10T09:27:57;2.53;;;0.80;;
12675;SDS011;63820;65.654;21.944;2023-06-10T09:30:41;2.08;;;1.30;;
12675;SDS011;63820;65.654;21.944;2023-06-10T09:33:25;1.02;;;0.60;;
12675;SDS011;63820;65.654;21.944;2023-06-10T09:36:10;1.67;;;0.50;;
12675;SDS011;63820;65.654;21.944;2023-06-10T09:38:56;0.57;;;0.45;;
12675;SDS011;63820;65.654;21.944;2023-06-10T09:41:40;1.30;;;0.60;;
12675;SDS011;63820;65.654;21.944;2023-06-10T09:44:25;0.70;;;0.60;;
12675;SDS011;63820;65.654;21.944;2023-06-10T09:47:09;0.90;;;0.68;;
12675;SDS011;63820;65.654;21.944;2023-06-10T09:50:04;0.52;;;0.50;;
12675;SDS011;63820;65.654;21.944;2023-06-10T09:52:49;0.93;;;0.47;;
12675;SDS011;63820;65.654;21.944;2023-06-10T09:55:34;0.45;;;0.40;;
12675;SDS011;63820;65.654;21.944;2023-06-10T09:58:33;0.60;;;0.57;;
12675;SDS011;63820;65.654;21.944;2023-06-10T10:01:19;1.05;;;0.60;;
12675;SDS011;63820;65.654;21.944;2023-06-10T10:04:04;0.95;;;0.50;;
12675;SDS011;63820;65.654;21.944;2023-06-10T10:06:47;0.50;;;0.40;;
12675;SDS011;63820;65.654;21.944;2023-06-10T10:09:33;1.17;;;0.70;;
12675;SDS011;63820;65.654;21.944;2023-06-10T10:12:17;0.50;;;0.50;;
12675;SDS011;63820;65.654;21.944;2023-06-10T10:15:01;1.73;;;0.60;;
12675;SDS011;63820;65.654;21.944;2023-06-10T10:17:53;1.20;;;0.70;;
12675;SDS011;63820;65.654;21.944;2023-06-10T10:20:48;1.10;;;0.60;;
12675;SDS011;63820;65.654;21.944;2023-06-10T10:23:39;0.80;;;0.60;;
12675;SDS011;63820;65.654;21.944;2023-06-10T10:26:29;0.50;;;0.50;;
12675;SDS011;63820;65.654;21.944;2023-06-10T10:32:08;1.13;;;0.60;;
12675;SDS011;63820;65.654;21.944;2023-06-10T10:37:53;1.05;;;0.52;;
12675;SDS011;63820;65.654;21.944;2023-06-10T10:40:38;1.20;;;0.60;;
12675;SDS011;63820;65.654;21.944;2023-06-10T10:43:23;0.85;;;0.75;;
12675;SDS011;63820;65.654;21.944;2023-06-10T10:46:15;1.20;;;0.60;;
12675;SDS011;63820;65.654;21.944;2023-06-10T10:49:01;1.30;;;0.57;;
12675;SDS011;63820;65.654;21.944;2023-06-10T10:51:58;0.57;;;0.55;;
12675;SDS011;63820;65.654;21.944;2023-06-10T10:54:44;3.05;;;0.60;;
12675;SDS011;63820;65.654;21.944;2023-06-10T10:57:30;0.80;;;0.60;;
12675;SDS011;63820;65.654;21.944;2023-06-10T11:00:14;0.50;;;0.50;;
12675;SDS011;63820;65.654;21.944;2023-06-10T11:03:15;1.77;;;0.63;;
12675;SDS011;63820;65.654;21.944;2023-06-10T11:06:00;1.55;;;0.50;;
12675;SDS011;63820;65.654;21.944;2023-06-10T11:08:55;1.20;;;0.80;;
12675;SDS011;63820;65.654;21.944;2023-06-10T11:11:46;2.45;;;0.60;;
12675;SDS011;63820;65.654;21.944;2023-06-10T11:14:34;2.45;;;0.68;;
12675;SDS011;63820;65.654;21.944;2023-06-10T11:17:19;1.58;;;0.50;;
12675;SDS011;63820;65.654;21.944;2023-06-10T11:20:04;0.73;;;0.60;;
12675;SDS011;63820;65.654;21.944;2023-06-10T11:22:58;0.75;;;0.60;;
12675;SDS011;63820;65.654;21.944;2023-06-10T11:25:42;0.68;;;0.50;;
12675;SDS011;63820;65.654;21.944;2023-06-10T11:28:27;0.80;;;0.50;;
12675;SDS011;63820;65.654;21.944;2023-06-10T11:31:21;0.50;;;0.50;;
12675;SDS011;63820;65.654;21.944;2023-06-10T11:34:07;1.73;;;0.80;;
12675;SDS011;63820;65.654;21.944;2023-06-10T11:36:52;1.03;;;0.50;;
12675;SDS011;63820;65.654;21.944;2023-06-10T11:39:36;0.73;;;0.70;;
12675;SDS011;63820;65.654;21.944;2023-06-10T11:42:21;0.57;;;0.43;;
12675;SDS011;63820;65.654;21.944;2023-06-10T11:45:06;1.70;;;0.73;;
12675;SDS011;63820;65.654;21.944;2023-06-10T11:47:58;1.57;;;0.60;;
12675;SDS011;63820;65.654;21.944;2023-06-10T11:50:43;0.97;;;0.60;;
12675;SDS011;63820;65.654;21.944;2023-06-10T11:53:27;1.67;;;0.60;;
12675;SDS011;63820;65.654;21.944;2023-06-10T11:56:11;1.17;;;0.60;;
12675;SDS011;63820;65.654;21.944;2023-06-10T12:01:42;2.30;;;0.80;;
12675;SDS011;63820;65.654;21.944;2023-06-10T12:04:28;3.07;;;0.73;;
12675;SDS011;63820;65.654;21.944;2023-06-10T12:07:19;1.00;;;0.60;;
12675;SDS011;63820;65.654;21.944;2023-06-10T12:10:03;1.00;;;0.73;;
12675;SDS011;63820;65.654;21.944;2023-06-10T12:12:48;1.20;;;0.67;;
12675;SDS011;63820;65.654;21.944;2023-06-10T12:15:32;1.90;;;0.60;;
12675;SDS011;63820;65.654;21.944;2023-06-10T12:21:01;1.77;;;0.60;;
12675;SDS011;63820;65.654;21.944;2023-06-10T12:24:03;1.37;;;0.60;;
12675;SDS011;63820;65.654;21.944;2023-06-10T12:26:54;2.07;;;0.80;;
12675;SDS011;63820;65.654;21.944;2023-06-10T12:29:39;1.27;;;0.70;;
12675;SDS011;63820;65.654;21.944;2023-06-10T12:32:34;1.43;;;0.53;;
12675;SDS011;63820;65.654;21.944;2023-06-10T12:35:20;1.50;;;0.60;;
12675;SDS011;63820;65.654;21.944;2023-06-10T12:38:08;1.53;;;0.60;;
12675;SDS011;63820;65.654;21.944;2023-06-10T12:41:00;0.87;;;0.70;;
12675;SDS011;63820;65.654;21.944;2023-06-10T12:43:47;1.10;;;0.60;;
12675;SDS011;63820;65.654;21.944;2023-06-10T12:46:37;1.00;;;0.60;;
12675;SDS011;63820;65.654;21.944;2023-06-10T12:53:08;1.33;;;0.60;;
12675;SDS011;63820;65.654;21.944;2023-06-10T12:55:53;0.93;;;0.70;;
12675;SDS011;63820;65.654;21.944;2023-06-10T12:58:38;1.60;;;0.73;;
12675;SDS011;63820;65.654;21.944;2023-06-10T13:01:23;1.23;;;0.70;;
12675;SDS011;63820;65.654;21.944;2023-06-10T13:04:07;1.13;;;0.70;;
12675;SDS011;63820;65.654;21.944;2023-06-10T13:06:51;1.97;;;0.67;;
12675;SDS011;63820;65.654;21.944;2023-06-10T13:09:35;0.60;;;0.57;;
12675;SDS011;63820;65.654;21.944;2023-06-10T13:12:19;1.47;;;0.80;;
12675;SDS011;63820;65.654;21.944;2023-06-10T13:15:04;0.97;;;0.67;;
12675;SDS011;63820;65.654;21.944;2023-06-10T13:17:49;0.70;;;0.60;;
12675;SDS011;63820;65.654;21.944;2023-06-10T13:20:34;1.00;;;0.70;;
12675;SDS011;63820;65.654;21.944;2023-06-10T13:23:18;2.40;;;0.80;;
12675;SDS011;63820;65.654;21.944;2023-06-10T13:26:02;2.13;;;0.80;;
12675;SDS011;63820;65.654;21.944;2023-06-10T13:28:47;1.37;;;0.87;;
12675;SDS011;63820;65.654;21.944;2023-06-10T13:31:31;2.20;;;0.80;;
12675;SDS011;63820;65.654;21.944;2023-06-10T13:34:16;3.33;;;0.70;;
12675;SDS011;63820;65.654;21.944;2023-06-10T13:37:00;1.93;;;0.80;;
12675;SDS011;63820;65.654;21.944;2023-06-10T13:39:45;2.30;;;0.87;;
12675;SDS011;63820;65.654;21.944;2023-06-10T13:42:34;2.33;;;0.77;;
12675;SDS011;63820;65.654;21.944;2023-06-10T13:45:19;1.93;;;0.80;;
12675;SDS011;63820;65.654;21.944;2023-06-10T13:48:03;1.03;;;0.93;;
12675;SDS011;63820;65.654;21.944;2023-06-10T13:50:49;2.13;;;1.00;;
12675;SDS011;63820;65.654;21.944;2023-06-10T13:53:33;1.17;;;0.80;;
12675;SDS011;63820;65.654;21.944;2023-06-10T13:56:18;1.83;;;0.80;;
12675;SDS011;63820;65.654;21.944;2023-06-10T13:59:02;1.70;;;0.77;;
12675;SDS011;63820;65.654;21.944;2023-06-10T14:01:47;1.10;;;1.00;;
12675;SDS011;63820;65.654;21.944;2023-06-10T14:04:31;1.00;;;0.77;;
12675;SDS011;63820;65.654;21.944;2023-06-10T14:07:16;3.17;;;0.90;;
12675;SDS011;63820;65.654;21.944;2023-06-10T14:10:00;1.27;;;0.80;;
12675;SDS011;63820;65.654;21.944;2023-06-10T14:12:45;0.93;;;0.80;;
12675;SDS011;63820;65.654;21.944;2023-06-10T14:15:29;1.80;;;1.10;;
12675;SDS011;63820;65.654;21.944;2023-06-10T14:18:14;3.20;;;1.50;;
12675;SDS011;63820;65.654;21.944;2023-06-10T14:20:58;2.73;;;0.90;;
12675;SDS011;63820;65.654;21.944;2023-06-10T14:23:42;1.17;;;0.80;;
12675;SDS011;63820;65.654;21.944;2023-06-10T14:26:27;1.30;;;0.77;;
12675;SDS011;63820;65.654;21.944;2023-06-10T14:29:11;1.27;;;0.63;;
12675;SDS011;63820;65.654;21.944;2023-06-10T14:31:57;1.63;;;0.90;;
12675;SDS011;63820;65.654;21.944;2023-06-10T14:34:41;1.27;;;0.80;;
12675;SDS011;63820;65.654;21.944;2023-06-10T14:37:28;2.97;;;0.97;;
12675;SDS011;63820;65.654;21.944;2023-06-10T14:40:12;1.73;;;0.83;;
12675;SDS011;63820;65.654;21.944;2023-06-10T14:42:56;1.53;;;0.70;;
12675;SDS011;63820;65.654;21.944;2023-06-10T14:45:40;1.27;;;0.80;;
12675;SDS011;63820;65.654;21.944;2023-06-10T14:48:25;2.30;;;0.70;;
12675;SDS011;63820;65.654;21.944;2023-06-10T14:51:09;3.23;;;0.70;;
12675;SDS011;63820;65.654;21.944;2023-06-10T14:53:53;2.00;;;0.70;;
12675;SDS011;63820;65.654;21.944;2023-06-10T14:56:37;1.80;;;1.03;;
12675;SDS011;63820;65.654;21.944;2023-06-10T14:59:21;1.90;;;0.93;;
12675;SDS011;63820;65.654;21.944;2023-06-10T15:02:05;1.60;;;0.80;;
12675;SDS011;63820;65.654;21.944;2023-06-10T15:04:49;1.00;;;0.70;;
12675;SDS011;63820;65.654;21.944;2023-06-10T15:07:33;1.00;;;0.70;;
12675;SDS011;63820;65.654;21.944;2023-06-10T15:10:18;0.97;;;0.60;;
12675;SDS011;63820;65.654;21.944;2023-06-10T15:13:02;1.20;;;0.97;;
12675;SDS011;63820;65.654;21.944;2023-06-10T15:15:46;1.07;;;0.90;;
12675;SDS011;63820;65.654;21.944;2023-06-10T15:18:30;1.33;;;0.80;;
12675;SDS011;63820;65.654;21.944;2023-06-10T15:21:14;2.40;;;0.90;;
12675;SDS011;63820;65.654;21.944;2023-06-10T15:23:58;1.87;;;0.70;;
12675;SDS011;63820;65.654;21.944;2023-06-10T15:26:42;1.30;;;0.80;;
12675;SDS011;63820;65.654;21.944;2023-06-10T15:29:26;2.10;;;0.80;;
12675;SDS011;63820;65.654;21.944;2023-06-10T15:32:10;1.50;;;0.67;;
12675;SDS011;63820;65.654;21.944;2023-06-10T15:34:54;1.40;;;0.80;;
12675;SDS011;63820;65.654;21.944;2023-06-10T15:37:38;1.43;;;0.70;;
12675;SDS011;63820;65.654;21.944;2023-06-10T15:40:23;1.33;;;0.70;;
12675;SDS011;63820;65.654;21.944;2023-06-10T15:43:07;2.80;;;0.80;;
12675;SDS011;63820;65.654;21.944;2023-06-10T15:45:51;2.57;;;0.80;;
12675;SDS011;63820;65.654;21.944;2023-06-10T15:48:35;2.43;;;0.80;;
12675;SDS011;63820;65.654;21.944;2023-06-10T15:51:19;2.80;;;0.90;;
12675;SDS011;63820;65.654;21.944;2023-06-10T15:54:03;2.70;;;2.50;;
12675;SDS011;63820;65.654;21.944;2023-06-10T15:56:48;1.87;;;1.23;;
12675;SDS011;63820;65.654;21.944;2023-06-10T15:59:32;2.13;;;1.17;;
12675;SDS011;63820;65.654;21.944;2023-06-10T16:02:16;0.77;;;0.73;;
12675;SDS011;63820;65.654;21.944;2023-06-10T16:05:00;1.97;;;0.80;;
12675;SDS011;63820;65.654;21.944;2023-06-10T16:07:44;1.93;;;0.83;;
12675;SDS011;63820;65.654;21.944;2023-06-10T16:10:28;1.33;;;0.70;;
12675;SDS011;63820;65.654;21.944;2023-06-10T16:13:12;2.77;;;0.90;;
12675;SDS011;63820;65.654;21.944;2023-06-10T16:15:56;1.40;;;0.80;;
12675;SDS011;63820;65.654;21.944;2023-06-10T16:18:40;1.37;;;0.90;;
12675;SDS011;63820;65.654;21.944;2023-06-10T16:21:24;1.07;;;0.93;;
12675;SDS011;63820;65.654;21.944;2023-06-10T16:24:10;1.00;;;0.80;;
12675;SDS011;63820;65.654;21.944;2023-06-10T16:26:55;1.23;;;0.73;;
12675;SDS011;63820;65.654;21.944;2023-06-10T16:29:38;1.90;;;0.77;;
12675;SDS011;63820;65.654;21.944;2023-06-10T16:32:22;1.27;;;0.87;;
12675;SDS011;63820;65.654;21.944;2023-06-10T16:35:06;1.63;;;0.70;;
12675;SDS011;63820;65.654;21.944;2023-06-10T16:37:51;1.60;;;1.00;;